createdAt,value
2023-02-06T00:00:07.966Z,7.32
2023-02-06T00:02:35.809Z,8.05
2023-02-06T00:05:03.738Z,7.93
2023-02-06T00:07:31.519Z,7.55
2023-02-06T00:09:59.234Z,6.50
2023-02-06T00:12:27.023Z,5.20
2023-02-06T00:14:54.920Z,5.80
2023-02-06T00:17:22.677Z,4.68
2023-02-06T00:19:50.519Z,5.03
2023-02-06T00:22:18.379Z,4.65
2023-02-06T00:24:46.234Z,4.60
2023-02-06T00:27:14.089Z,4.53
2023-02-06T00:29:41.931Z,4.95
2023-02-06T00:32:09.707Z,4.55
2023-02-06T00:34:37.566Z,4.45
2023-02-06T00:37:07.435Z,3.70
2023-02-06T00:39:35.282Z,3.85
2023-02-06T00:42:03.298Z,3.80
2023-02-06T00:44:31.042Z,3.65
2023-02-06T00:46:59.098Z,3.30
2023-02-06T00:49:26.948Z,3.45
2023-02-06T00:51:54.726Z,3.20
2023-02-06T00:54:22.509Z,3.30
2023-02-06T00:56:50.351Z,3.08
2023-02-06T00:59:18.265Z,3.30
2023-02-06T01:01:46.086Z,3.58
2023-02-06T01:04:14.069Z,3.63
2023-02-06T01:06:41.818Z,3.65
2023-02-06T01:09:09.584Z,3.70
2023-02-06T01:11:37.411Z,4.05
2023-02-06T01:14:05.218Z,3.90
2023-02-06T01:16:33.128Z,4.57
2023-02-06T01:19:02.114Z,3.60
2023-02-06T01:21:29.899Z,4.00
2023-02-06T01:23:58.913Z,3.92
2023-02-06T01:26:27.278Z,3.90
2023-02-06T01:28:55.670Z,3.95
2023-02-06T01:31:32.846Z,3.30
2023-02-06T01:34:01.205Z,3.75
2023-02-06T01:36:29.318Z,3.47
2023-02-06T01:38:57.748Z,3.58
2023-02-06T01:41:25.771Z,3.42
2023-02-06T01:44:12.073Z,3.80
2023-02-06T01:46:41.069Z,3.50
2023-02-06T01:49:10.594Z,3.13
2023-02-06T01:51:38.651Z,3.47
2023-02-06T01:54:08.240Z,3.25
2023-02-06T01:56:40.572Z,2.78
2023-02-06T01:59:08.484Z,2.80
2023-02-06T02:01:36.596Z,3.67
2023-02-06T02:04:06.995Z,3.35
2023-02-06T02:06:35.132Z,3.25
2023-02-06T02:09:03.880Z,3.42
2023-02-06T02:11:33.508Z,3.42
2023-02-06T02:14:02.501Z,3.38
2023-02-06T02:16:39.823Z,3.28
2023-02-06T02:19:07.636Z,2.80
2023-02-06T02:21:44.580Z,3.15
2023-02-06T02:24:23.680Z,3.17
2023-02-06T02:27:00.825Z,2.97
2023-02-06T02:29:37.926Z,3.72
2023-02-06T02:32:24.151Z,3.33
2023-02-06T02:35:10.356Z,2.92
2023-02-06T02:37:44.487Z,3.22
2023-02-06T02:40:12.341Z,3.65
2023-02-06T02:42:43.244Z,2.80
2023-02-06T02:45:17.284Z,2.80
2023-02-06T02:48:11.516Z,3.47
2023-02-06T02:50:40.007Z,3.20
2023-02-06T02:53:07.912Z,3.38
2023-02-06T02:55:36.880Z,3.30
2023-02-06T02:58:11.629Z,2.80
2023-02-06T03:00:45.046Z,2.88
2023-02-06T03:03:14.621Z,2.92
2023-02-06T03:05:50.124Z,4.20
2023-02-06T03:08:23.178Z,4.10
2023-02-06T03:11:01.544Z,4.50
2023-02-06T03:13:30.127Z,5.10
2023-02-06T03:16:10.238Z,6.13
2023-02-06T03:18:41.479Z,7.00
2023-02-06T03:21:11.627Z,7.05
2023-02-06T03:23:40.458Z,8.02
2023-02-06T03:26:10.501Z,9.38
2023-02-06T03:28:44.001Z,9.18
2023-02-06T03:31:14.446Z,9.57
2023-02-06T03:33:50.676Z,9.52
2023-02-06T03:36:20.121Z,9.73
2023-02-06T03:38:50.174Z,10.52
2023-02-06T03:41:19.585Z,11.50
2023-02-06T03:43:47.965Z,10.65
2023-02-06T03:46:17.609Z,11.23
2023-02-06T03:48:48.512Z,11.75
2023-02-06T03:51:19.176Z,12.73
2023-02-06T03:53:48.287Z,11.45
2023-02-06T03:56:45.649Z,11.95
2023-02-06T03:59:13.476Z,12.07
2023-02-06T04:01:44.561Z,11.88
2023-02-06T04:04:14.850Z,10.93
2023-02-06T04:06:42.806Z,11.35
2023-02-06T04:09:10.635Z,11.77
2023-02-06T04:11:38.432Z,11.32
2023-02-06T04:14:06.272Z,11.88
2023-02-06T04:16:34.417Z,11.50
2023-02-06T04:19:02.355Z,11.18
2023-02-06T04:21:30.220Z,11.63
2023-02-06T04:23:58.000Z,11.35
2023-02-06T04:26:25.804Z,10.52
2023-02-06T04:28:53.586Z,11.35
2023-02-06T04:31:21.395Z,10.70
2023-02-06T04:33:49.301Z,10.70
2023-02-06T04:36:17.106Z,11.90
2023-02-06T04:38:44.844Z,11.40
2023-02-06T04:41:12.646Z,11.07
2023-02-06T04:43:40.428Z,11.75
2023-02-06T04:46:08.254Z,11.57
2023-02-06T04:48:37.346Z,10.35
2023-02-06T04:51:05.300Z,11.13
2023-02-06T04:53:33.819Z,11.60
2023-02-06T04:56:11.811Z,11.40
2023-02-06T04:58:40.013Z,11.55
2023-02-06T05:01:08.092Z,11.38
2023-02-06T05:03:36.029Z,11.48
2023-02-06T05:06:05.037Z,11.25
2023-02-06T05:08:32.959Z,10.98
2023-02-06T05:11:00.880Z,10.40
2023-02-06T05:13:28.652Z,12.25
2023-02-06T05:15:58.191Z,11.32
2023-02-06T05:18:26.125Z,11.75
2023-02-06T05:20:54.011Z,11.57
2023-02-06T05:23:21.810Z,12.25
2023-02-06T05:25:49.683Z,11.07
2023-02-06T05:28:17.511Z,20.08
2023-02-06T05:30:45.778Z,78.57
2023-02-06T05:33:13.768Z,16.55
2023-02-06T05:35:41.751Z,11.25
2023-02-06T05:38:09.515Z,12.43
2023-02-06T05:40:37.896Z,11.63
2023-02-06T05:43:05.928Z,13.50
2023-02-06T05:45:35.988Z,16.13
2023-02-06T05:48:04.093Z,13.00
2023-02-06T05:50:33.728Z,11.80
2023-02-06T05:53:02.126Z,11.88
2023-02-06T05:55:30.172Z,13.30
2023-02-06T05:57:58.000Z,15.05
2023-02-06T06:00:25.890Z,14.85
2023-02-06T06:02:53.799Z,19.33
2023-02-06T06:05:21.666Z,12.10
2023-02-06T06:07:49.703Z,12.85
2023-02-06T06:10:17.617Z,11.65
2023-02-06T06:12:45.395Z,16.20
2023-02-06T06:15:13.523Z,17.27
2023-02-06T06:17:41.350Z,13.75
2023-02-06T06:20:09.745Z,12.32
2023-02-06T06:22:37.498Z,13.10
2023-02-06T06:25:06.775Z,20.52
2023-02-06T06:27:34.913Z,15.93
2023-02-06T06:30:02.862Z,12.63
2023-02-06T06:32:30.814Z,12.10
2023-02-06T06:34:58.556Z,12.30
2023-02-06T06:37:26.548Z,12.00
2023-02-06T06:39:54.331Z,11.95
2023-02-06T06:42:22.113Z,12.02
2023-02-06T06:44:50.104Z,11.82
2023-02-06T06:47:17.952Z,12.77
2023-02-06T06:49:46.083Z,12.73
2023-02-06T06:52:24.497Z,11.82
2023-02-06T06:54:53.693Z,12.63
2023-02-06T06:57:22.610Z,12.43
2023-02-06T06:59:50.756Z,12.77
2023-02-06T07:02:18.692Z,12.27
2023-02-06T07:04:46.498Z,12.10
2023-02-06T07:07:14.320Z,11.63
2023-02-06T07:09:42.216Z,12.23
2023-02-06T07:12:10.072Z,12.85
2023-02-06T07:14:37.885Z,12.52
2023-02-06T07:17:05.846Z,12.95
2023-02-06T07:19:33.829Z,14.00
2023-02-06T07:22:01.677Z,14.00
2023-02-06T07:24:29.474Z,12.73
2023-02-06T07:26:58.030Z,12.23
2023-02-06T07:29:25.965Z,13.65
2023-02-06T07:31:53.858Z,14.40
2023-02-06T07:34:21.775Z,12.90
2023-02-06T07:36:49.732Z,13.82
2023-02-06T07:39:17.823Z,14.18
2023-02-06T07:41:46.976Z,14.13
2023-02-06T07:44:15.173Z,12.50
2023-02-06T07:46:43.979Z,12.13
2023-02-06T07:49:17.808Z,10.25
2023-02-06T07:51:46.044Z,9.82
2023-02-06T07:54:14.126Z,9.55
2023-02-06T07:56:42.036Z,9.75
2023-02-06T07:59:09.878Z,9.48
2023-02-06T08:01:37.760Z,9.40
2023-02-06T08:04:05.632Z,8.45
2023-02-06T08:06:33.525Z,7.72
2023-02-06T08:09:01.388Z,7.45
2023-02-06T08:11:31.048Z,6.95
2023-02-06T08:14:01.023Z,8.07
2023-02-06T08:16:28.863Z,6.82
2023-02-06T08:18:56.688Z,6.65
2023-02-06T08:21:25.438Z,6.60
2023-02-06T08:23:56.873Z,6.43
2023-02-06T08:26:25.318Z,6.45
2023-02-06T08:28:53.864Z,6.45
2023-02-06T08:31:23.888Z,6.03
2023-02-06T08:33:52.029Z,6.57
2023-02-06T08:36:21.736Z,5.78
2023-02-06T08:38:50.010Z,6.07
2023-02-06T08:41:19.410Z,5.72
2023-02-06T08:43:48.022Z,6.40
2023-02-06T08:46:17.071Z,5.85
2023-02-06T08:48:46.122Z,6.05
2023-02-06T08:51:14.397Z,6.28
2023-02-06T08:53:42.319Z,5.68
2023-02-06T08:56:11.673Z,5.68
2023-02-06T08:58:40.494Z,5.00
2023-02-06T09:01:09.322Z,5.40
2023-02-06T09:03:37.560Z,5.63
2023-02-06T09:06:10.327Z,5.80
2023-02-06T09:08:39.130Z,6.25
2023-02-06T09:11:11.151Z,5.53
2023-02-06T09:13:39.508Z,6.38
2023-02-06T09:16:07.498Z,6.22
2023-02-06T09:18:35.728Z,6.38
2023-02-06T09:21:14.257Z,6.68
2023-02-06T09:23:46.485Z,7.05
2023-02-06T09:26:15.668Z,6.40
2023-02-06T09:28:43.668Z,6.25
2023-02-06T09:31:12.249Z,6.30
2023-02-06T09:33:40.542Z,5.72
2023-02-06T09:36:10.050Z,5.80
2023-02-06T09:38:40.169Z,5.32
2023-02-06T09:41:13.829Z,5.10
2023-02-06T09:43:43.093Z,5.03
2023-02-06T09:46:14.927Z,5.22
2023-02-06T09:48:43.284Z,5.35
2023-02-06T09:51:14.328Z,5.18
2023-02-06T09:54:05.596Z,5.82
2023-02-06T09:56:48.861Z,6.72
2023-02-06T09:59:36.616Z,6.22
2023-02-06T10:02:31.819Z,5.10
2023-02-06T10:05:02.752Z,6.00
2023-02-06T10:07:55.750Z,5.53
2023-02-06T10:10:30.748Z,5.78
2023-02-06T10:13:01.621Z,5.50
2023-02-06T10:15:35.099Z,5.10
2023-02-06T10:18:10.395Z,5.68
2023-02-06T10:20:49.312Z,5.22
2023-02-06T10:23:17.250Z,5.28
2023-02-06T10:26:00.270Z,5.32
2023-02-06T10:28:32.179Z,5.05
2023-02-06T10:31:15.629Z,5.13
2023-02-06T10:36:26.586Z,4.55
2023-02-06T10:39:13.105Z,4.63
2023-02-06T10:41:40.861Z,4.45
2023-02-06T10:44:29.942Z,4.57
2023-02-06T10:46:58.454Z,4.60
2023-02-06T10:49:41.672Z,5.32
2023-02-06T10:52:21.704Z,5.35
2023-02-06T10:55:01.948Z,4.97
2023-02-06T10:57:29.909Z,5.65
2023-02-06T11:00:00.565Z,4.32
2023-02-06T11:03:07.230Z,4.32
2023-02-06T11:05:36.811Z,4.95
2023-02-06T11:08:23.723Z,5.10
2023-02-06T11:10:52.141Z,5.15
2023-02-06T11:13:31.636Z,6.05
2023-02-06T11:16:03.437Z,5.13
2023-02-06T11:18:37.958Z,4.85
2023-02-06T11:21:06.720Z,4.23
2023-02-06T11:23:37.290Z,5.32
2023-02-06T11:26:14.314Z,4.82
2023-02-06T11:28:58.503Z,5.55
2023-02-06T11:31:46.705Z,4.63
2023-02-06T11:34:22.098Z,5.35
2023-02-06T11:36:54.494Z,5.90
2023-02-06T11:39:30.683Z,5.95
2023-02-06T11:42:17.423Z,5.00
2023-02-06T11:44:46.485Z,5.22
2023-02-06T11:47:20.501Z,4.93
2023-02-06T11:49:48.355Z,5.63
2023-02-06T11:52:36.611Z,5.03
2023-02-06T11:55:04.708Z,8.82
2023-02-06T11:57:35.776Z,6.18
2023-02-06T12:00:19.593Z,5.30
2023-02-06T12:02:51.834Z,5.45
2023-02-06T12:05:20.795Z,5.00
2023-02-06T12:07:51.626Z,5.00
2023-02-06T12:10:20.873Z,5.13
2023-02-06T12:12:56.452Z,5.25
2023-02-06T12:15:45.481Z,4.60
2023-02-06T12:18:19.566Z,5.20
2023-02-06T12:20:54.991Z,5.18
2023-02-06T12:23:31.942Z,4.90
2023-02-06T12:26:01.714Z,4.68
2023-02-06T12:28:48.386Z,5.15
2023-02-06T12:31:22.063Z,4.57
2023-02-06T12:33:54.936Z,5.22
2023-02-06T12:36:27.949Z,4.90
2023-02-06T12:39:03.211Z,4.90
2023-02-06T12:41:49.859Z,4.85
2023-02-06T12:44:41.662Z,5.50
2023-02-06T12:47:26.292Z,5.88
2023-02-06T12:50:16.491Z,5.38
2023-02-06T12:52:50.543Z,4.75
2023-02-06T12:55:29.746Z,4.72
2023-02-06T12:57:58.087Z,4.82
2023-02-06T13:00:32.355Z,5.47
2023-02-06T13:03:06.822Z,4.90
2023-02-06T13:05:37.506Z,5.15
2023-02-06T13:08:17.409Z,5.60
2023-02-06T13:10:45.525Z,10.23
2023-02-06T13:13:28.025Z,6.18
2023-02-06T13:16:00.554Z,4.30
2023-02-06T13:18:50.897Z,4.13
2023-02-06T13:21:21.961Z,4.97
2023-02-06T13:23:51.322Z,4.28
2023-02-06T13:26:19.517Z,5.63
2023-02-06T13:28:57.132Z,4.70
2023-02-06T13:31:26.607Z,5.50
2023-02-06T13:33:56.340Z,4.65
2023-02-06T13:36:41.829Z,4.18
2023-02-06T13:39:23.014Z,4.35
2023-02-06T13:41:51.126Z,4.55
2023-02-06T13:44:22.210Z,27.92
2023-02-06T13:47:08.199Z,6.78
2023-02-06T13:49:45.107Z,4.85
2023-02-06T13:52:20.673Z,4.95
2023-02-06T13:55:07.314Z,4.95
2023-02-06T13:57:35.052Z,5.55
2023-02-06T14:00:21.203Z,4.45
2023-02-06T14:02:52.214Z,4.45
2023-02-06T14:05:21.741Z,4.40
2023-02-06T14:07:58.083Z,4.70
2023-02-06T14:10:44.594Z,5.13
2023-02-06T14:13:20.297Z,5.75
2023-02-06T14:15:48.278Z,5.28
2023-02-06T14:18:26.509Z,5.47
2023-02-06T14:21:03.774Z,5.72
2023-02-06T14:23:34.562Z,5.60
2023-02-06T14:26:05.623Z,5.65
2023-02-06T14:28:52.589Z,5.47
2023-02-06T14:31:33.470Z,6.25
2023-02-06T14:34:01.324Z,6.75
2023-02-06T14:36:39.965Z,5.90
2023-02-06T14:39:08.348Z,5.63
2023-02-06T14:41:39.602Z,5.85
2023-02-06T14:44:11.841Z,6.18
2023-02-06T14:46:41.806Z,6.28
2023-02-06T14:49:15.242Z,6.43
2023-02-06T14:51:43.549Z,5.90
2023-02-06T14:54:47.120Z,5.32
2023-02-06T14:57:32.626Z,5.72
2023-02-06T15:00:07.151Z,6.13
2023-02-06T15:02:35.980Z,6.22
2023-02-06T15:05:05.113Z,7.32
2023-02-06T15:07:33.053Z,7.30
2023-02-06T15:10:11.916Z,6.70
2023-02-06T15:12:39.747Z,5.70
2023-02-06T15:15:10.751Z,6.28
2023-02-06T15:17:38.813Z,6.57
2023-02-06T15:20:22.204Z,6.13
2023-02-06T15:22:50.197Z,6.35
2023-02-06T15:25:37.829Z,6.43
2023-02-06T15:28:07.356Z,6.30
2023-02-06T15:30:37.102Z,6.50
2023-02-06T15:33:09.105Z,6.95
2023-02-06T15:35:39.604Z,6.78
2023-02-06T15:38:16.438Z,6.43
2023-02-06T15:40:48.833Z,6.88
2023-02-06T15:43:20.081Z,6.00
2023-02-06T15:45:49.012Z,6.28
2023-02-06T15:48:23.723Z,6.68
2023-02-06T15:50:57.646Z,6.38
2023-02-06T15:53:31.761Z,6.82
2023-02-06T15:56:00.238Z,6.70
2023-02-06T15:58:28.349Z,6.95
2023-02-06T16:00:57.385Z,6.40
2023-02-06T16:03:27.064Z,8.10
2023-02-06T16:05:56.545Z,6.55
2023-02-06T16:08:35.356Z,6.78
2023-02-06T16:11:05.484Z,7.35
2023-02-06T16:13:33.741Z,8.07
2023-02-06T16:16:03.425Z,7.32
2023-02-06T16:18:33.776Z,7.93
2023-02-06T16:21:12.836Z,14.05
2023-02-06T16:23:45.634Z,8.00
2023-02-06T16:26:21.628Z,7.88
2023-02-06T16:29:25.188Z,7.57
2023-02-06T16:32:01.553Z,7.07
2023-02-06T16:34:32.390Z,7.50
2023-02-06T16:37:00.282Z,8.35
2023-02-06T16:39:28.262Z,8.13
2023-02-06T16:41:57.292Z,8.30
2023-02-06T16:44:36.104Z,7.68
2023-02-06T16:47:13.992Z,7.70
2023-02-06T16:49:41.986Z,8.18
2023-02-06T16:52:11.948Z,9.35
2023-02-06T16:54:40.205Z,9.20
2023-02-06T16:57:12.335Z,8.40
2023-02-06T16:59:40.192Z,8.02
2023-02-06T17:02:15.096Z,7.95
2023-02-06T17:04:43.031Z,9.70
2023-02-06T17:07:18.838Z,8.80
2023-02-06T17:09:47.077Z,8.77
2023-02-06T17:12:16.392Z,7.78
2023-02-06T17:14:44.618Z,8.75
2023-02-06T17:17:17.448Z,9.25
2023-02-06T17:19:45.339Z,11.70
2023-02-06T17:22:13.761Z,9.65
2023-02-06T17:24:42.510Z,9.25
2023-02-06T17:27:14.102Z,9.73
2023-02-06T17:29:42.279Z,7.85
2023-02-06T17:32:10.348Z,8.48
2023-02-06T17:34:38.402Z,8.38
2023-02-06T17:37:08.120Z,10.27
2023-02-06T17:39:36.444Z,9.93
2023-02-06T17:42:04.482Z,9.30
2023-02-06T17:44:32.348Z,11.68
2023-02-06T17:47:00.439Z,10.30
2023-02-06T17:49:28.221Z,12.07
2023-02-06T17:51:56.743Z,10.10
2023-02-06T17:54:24.558Z,11.25
2023-02-06T17:56:52.562Z,11.73
2023-02-06T17:59:20.464Z,12.40
2023-02-06T18:01:48.581Z,10.60
2023-02-06T18:04:19.707Z,10.07
2023-02-06T18:06:48.130Z,10.73
2023-02-06T18:09:16.222Z,19.25
2023-02-06T18:11:44.415Z,15.65
2023-02-06T18:14:30.977Z,15.82
2023-02-06T18:16:59.113Z,18.75
2023-02-06T18:19:26.980Z,14.48
2023-02-06T18:21:54.798Z,15.73
2023-02-06T18:24:22.872Z,9.10
2023-02-06T18:26:50.648Z,10.63
2023-02-06T18:29:18.552Z,10.23
2023-02-06T18:31:46.751Z,9.18
2023-02-06T18:34:14.574Z,15.48
2023-02-06T18:36:42.700Z,10.55
2023-02-06T18:39:11.587Z,9.88
2023-02-06T18:41:57.922Z,10.10
2023-02-06T18:44:25.852Z,15.73
2023-02-06T18:46:58.780Z,11.38
2023-02-06T18:49:28.672Z,9.93
2023-02-06T18:51:57.496Z,9.98
2023-02-06T18:54:25.451Z,9.10
2023-02-06T18:56:53.284Z,24.95
2023-02-06T18:59:21.876Z,12.45
2023-02-06T19:01:52.087Z,10.75
2023-02-06T19:04:20.892Z,10.38
2023-02-06T19:06:49.971Z,8.80
2023-02-06T19:09:20.124Z,8.75
2023-02-06T19:11:49.040Z,9.77
2023-02-06T19:14:18.294Z,9.77
2023-02-06T19:16:48.315Z,9.82
2023-02-06T19:19:16.282Z,9.60
2023-02-06T19:21:44.714Z,9.57
2023-02-06T19:24:13.746Z,10.05
2023-02-06T19:26:47.527Z,10.38
2023-02-06T19:29:16.784Z,36.38
2023-02-06T19:31:45.461Z,39.03
2023-02-06T19:34:13.534Z,16.98
2023-02-06T19:36:41.538Z,12.65
2023-02-06T19:39:10.540Z,22.90
2023-02-06T19:41:44.732Z,11.65
2023-02-06T19:44:16.095Z,10.85
2023-02-06T19:46:45.313Z,11.20
2023-02-06T19:49:13.246Z,11.30
2023-02-06T19:51:42.010Z,10.98
2023-02-06T19:54:09.851Z,11.48
2023-02-06T19:56:39.655Z,11.93
2023-02-06T19:59:09.902Z,26.40
2023-02-06T20:01:37.766Z,39.42
2023-02-06T20:04:06.030Z,24.80
2023-02-06T20:06:35.176Z,12.48
2023-02-06T20:09:03.564Z,11.43
2023-02-06T20:11:31.996Z,14.43
2023-02-06T20:13:59.895Z,20.35
2023-02-06T20:16:29.218Z,13.82
2023-02-06T20:18:57.380Z,11.65
2023-02-06T20:21:33.593Z,12.27
2023-02-06T20:24:02.642Z,12.18
2023-02-06T20:26:31.804Z,11.40
2023-02-06T20:29:02.495Z,11.25
2023-02-06T20:31:31.555Z,18.88
2023-02-06T20:33:59.553Z,19.60
2023-02-06T20:36:28.768Z,19.20
2023-02-06T20:39:00.493Z,17.52
2023-02-06T20:41:30.144Z,11.75
2023-02-06T20:43:59.542Z,11.32
2023-02-06T20:46:29.849Z,21.50
2023-02-06T20:48:59.029Z,21.00
2023-02-06T20:51:27.477Z,12.07
2023-02-06T20:53:55.730Z,11.18
2023-02-06T20:56:24.030Z,12.38
2023-02-06T20:58:52.482Z,12.30
2023-02-06T21:01:25.135Z,11.85
2023-02-06T21:03:55.646Z,11.20
2023-02-06T21:06:23.758Z,11.88
2023-02-06T21:08:52.984Z,12.27
2023-02-06T21:11:21.298Z,11.60
2023-02-06T21:13:49.355Z,23.63
2023-02-06T21:16:17.211Z,15.40
2023-02-06T21:18:45.239Z,35.65
2023-02-06T21:21:15.978Z,17.02
2023-02-06T21:23:44.683Z,13.13
2023-02-06T21:26:14.277Z,11.20
2023-02-06T21:28:42.233Z,11.70
2023-02-06T21:31:15.889Z,11.98
2023-02-06T21:33:43.978Z,11.40
2023-02-06T21:36:11.898Z,12.02
2023-02-06T21:38:40.305Z,11.60
2023-02-06T21:41:18.328Z,11.95
2023-02-06T21:43:47.398Z,13.38
2023-02-06T21:46:15.476Z,12.10
2023-02-06T21:48:43.405Z,12.50
2023-02-06T21:51:15.814Z,12.73
2023-02-06T21:53:44.692Z,12.55
2023-02-06T21:56:16.135Z,13.85
2023-02-06T21:58:44.247Z,12.50
2023-02-06T22:01:16.552Z,12.40
2023-02-06T22:03:48.050Z,13.63
2023-02-06T22:06:16.385Z,12.85
2023-02-06T22:08:45.443Z,12.98
2023-02-06T22:11:24.176Z,12.27
2023-02-06T22:13:52.823Z,12.40
2023-02-06T22:16:23.520Z,12.20
2023-02-06T22:18:51.687Z,12.20
2023-02-06T22:21:21.259Z,12.30
2023-02-06T22:23:49.976Z,13.02
2023-02-06T22:26:19.004Z,12.15
2023-02-06T22:28:47.372Z,12.65
2023-02-06T22:31:16.939Z,13.15
2023-02-06T22:33:48.565Z,12.57
2023-02-06T22:36:19.674Z,13.25
2023-02-06T22:38:48.273Z,13.13
2023-02-06T22:41:16.998Z,13.48
2023-02-06T22:43:45.732Z,12.90
2023-02-06T22:46:19.646Z,13.68
2023-02-06T22:48:47.865Z,13.23
2023-02-06T22:51:16.210Z,13.23
2023-02-06T22:53:44.480Z,12.75
2023-02-06T22:56:27.020Z,12.63
2023-02-06T22:58:55.847Z,13.23
2023-02-06T23:01:25.870Z,13.02
2023-02-06T23:03:54.423Z,13.02
2023-02-06T23:06:22.531Z,13.18
2023-02-06T23:08:50.714Z,13.50
2023-02-06T23:11:18.773Z,12.98
2023-02-06T23:13:46.768Z,13.02
2023-02-06T23:16:14.872Z,13.90
2023-02-06T23:18:42.725Z,13.35
2023-02-06T23:21:12.072Z,12.93
2023-02-06T23:23:41.373Z,13.68
2023-02-06T23:26:10.622Z,12.82
2023-02-06T23:28:38.563Z,13.10
2023-02-06T23:31:07.175Z,12.60
2023-02-06T23:33:35.171Z,12.88
2023-02-06T23:36:04.910Z,12.50
2023-02-06T23:38:32.720Z,12.48
2023-02-06T23:41:14.291Z,12.15
2023-02-06T23:43:42.484Z,12.93
2023-02-06T23:46:12.344Z,12.20
2023-02-06T23:48:40.526Z,12.43
2023-02-06T23:51:08.582Z,10.75
2023-02-06T23:53:36.356Z,12.90
2023-02-06T23:56:10.164Z,12.05
2023-02-06T23:58:37.986Z,12.63
